BVY weather

Beverly Municipal Airport
Beverly, Massachusetts, United States

Public forecast

Using degrees Fahrenheit for public forecast. Weather courtesy of forecast.io.

METAR (pilot weather report)

Retrieved 2017/10/23 03:00 UTC (3 minutes ago):

KBVY 230300Z AUTO 36003KT 8SM OVC004 13/12 A3041 RMK AO2 T01280122

TAF (pilot weather forecast)

Forecast is more than 12 hours old.

Closest forecast is General Edward Lawrence Logan International Airport, 13.8 nm (25.5 km) SSW. Retrieved 2017/10/22 00:27 UTC (1 day ago):

TAF KBOS 222325Z 2300/2406 07005KT P6SM BKN005 BKN250 FM230700 VRB03KT 1/2SM FG BKN003 FM231330 18004KT P6SM BKN010 FM231600 17006KT P6SM BKN060